sensor_id;sensor_type;location;lat;lon;timestamp;P1;durP1;ratioP1;P2;durP2;ratioP2
24409;SDS011;12543;53.364;-1.504;2022-12-20T00:01:27;0.90;;;0.50;;
24409;SDS011;12543;53.364;-1.504;2022-12-20T00:03:57;0.45;;;0.40;;
24409;SDS011;12543;53.364;-1.504;2022-12-20T00:08:52;2.72;;;0.40;;
24409;SDS011;12543;53.364;-1.504;2022-12-20T00:11:21;0.30;;;0.30;;
24409;SDS011;12543;53.364;-1.504;2022-12-20T00:13:50;1.20;;;0.50;;
24409;SDS011;12543;53.364;-1.504;2022-12-20T00:16:20;1.08;;;0.50;;
24409;SDS011;12543;53.364;-1.504;2022-12-20T00:18:58;2.35;;;0.60;;
24409;SDS011;12543;53.364;-1.504;2022-12-20T00:21:27;1.05;;;0.52;;
24409;SDS011;12543;53.364;-1.504;2022-12-20T00:23:55;1.38;;;0.60;;
24409;SDS011;12543;53.364;-1.504;2022-12-20T00:26:23;1.02;;;0.50;;
24409;SDS011;12543;53.364;-1.504;2022-12-20T00:28:53;1.90;;;0.60;;
24409;SDS011;12543;53.364;-1.504;2022-12-20T00:31:21;0.98;;;0.63;;
24409;SDS011;12543;53.364;-1.504;2022-12-20T00:33:51;2.78;;;0.50;;
24409;SDS011;12543;53.364;-1.504;2022-12-20T00:36:21;2.00;;;0.60;;
24409;SDS011;12543;53.364;-1.504;2022-12-20T00:38:52;1.90;;;0.60;;
24409;SDS011;12543;53.364;-1.504;2022-12-20T00:41:21;2.97;;;0.65;;
24409;SDS011;12543;53.364;-1.504;2022-12-20T00:43:51;1.15;;;0.52;;
24409;SDS011;12543;53.364;-1.504;2022-12-20T00:46:21;3.10;;;0.80;;
24409;SDS011;12543;53.364;-1.504;2022-12-20T00:48:51;2.17;;;0.80;;
24409;SDS011;12543;53.364;-1.504;2022-12-20T00:53:48;4.07;;;1.40;;
24409;SDS011;12543;53.364;-1.504;2022-12-20T00:56:16;2.60;;;1.20;;
24409;SDS011;12543;53.364;-1.504;2022-12-20T00:58:43;1.50;;;1.00;;
24409;SDS011;12543;53.364;-1.504;2022-12-20T01:01:19;2.88;;;1.00;;
24409;SDS011;12543;53.364;-1.504;2022-12-20T01:03:49;2.17;;;1.30;;
24409;SDS011;12543;53.364;-1.504;2022-12-20T01:06:18;1.50;;;1.40;;
24409;SDS011;12543;53.364;-1.504;2022-12-20T01:08:45;1.40;;;1.30;;
24409;SDS011;12543;53.364;-1.504;2022-12-20T01:11:14;3.70;;;1.70;;
24409;SDS011;12543;53.364;-1.504;2022-12-20T01:13:44;1.58;;;1.48;;
24409;SDS011;12543;53.364;-1.504;2022-12-20T01:16:21;2.63;;;1.75;;
24409;SDS011;12543;53.364;-1.504;2022-12-20T01:18:50;1.58;;;1.48;;
24409;SDS011;12543;53.364;-1.504;2022-12-20T01:21:18;1.50;;;1.40;;
24409;SDS011;12543;53.364;-1.504;2022-12-20T01:26:14;2.65;;;1.60;;
24409;SDS011;12543;53.364;-1.504;2022-12-20T01:28:43;2.35;;;1.30;;
24409;SDS011;12543;53.364;-1.504;2022-12-20T01:31:12;3.67;;;1.33;;
24409;SDS011;12543;53.364;-1.504;2022-12-20T01:33:41;1.98;;;1.50;;
24409;SDS011;12543;53.364;-1.504;2022-12-20T01:36:16;2.00;;;1.25;;
24409;SDS011;12543;53.364;-1.504;2022-12-20T01:38:45;1.63;;;1.10;;
24409;SDS011;12543;53.364;-1.504;2022-12-20T01:41:17;2.75;;;1.10;;
24409;SDS011;12543;53.364;-1.504;2022-12-20T01:43:53;1.40;;;0.90;;
24409;SDS011;12543;53.364;-1.504;2022-12-20T01:46:23;1.73;;;0.80;;
24409;SDS011;12543;53.364;-1.504;2022-12-20T01:48:59;2.35;;;0.82;;
24409;SDS011;12543;53.364;-1.504;2022-12-20T01:51:38;1.83;;;1.00;;
24409;SDS011;12543;53.364;-1.504;2022-12-20T01:54:10;2.45;;;0.75;;
24409;SDS011;12543;53.364;-1.504;2022-12-20T01:56:42;4.00;;;0.70;;
24409;SDS011;12543;53.364;-1.504;2022-12-20T01:59:12;1.60;;;0.65;;
24409;SDS011;12543;53.364;-1.504;2022-12-20T02:01:41;1.48;;;0.80;;
24409;SDS011;12543;53.364;-1.504;2022-12-20T02:04:10;2.25;;;0.90;;
24409;SDS011;12543;53.364;-1.504;2022-12-20T02:06:37;1.05;;;0.73;;
24409;SDS011;12543;53.364;-1.504;2022-12-20T02:09:04;3.22;;;1.00;;
24409;SDS011;12543;53.364;-1.504;2022-12-20T02:14:29;0.73;;;0.50;;
24409;SDS011;12543;53.364;-1.504;2022-12-20T02:17:23;2.33;;;0.50;;
24409;SDS011;12543;53.364;-1.504;2022-12-20T02:27:52;3.15;;;0.50;;
24409;SDS011;12543;53.364;-1.504;2022-12-20T02:30:31;2.30;;;0.50;;
24409;SDS011;12543;53.364;-1.504;2022-12-20T02:33:03;5.00;;;0.60;;
24409;SDS011;12543;53.364;-1.504;2022-12-20T02:35:36;3.05;;;0.50;;
24409;SDS011;12543;53.364;-1.504;2022-12-20T02:41:00;2.10;;;0.40;;
24409;SDS011;12543;53.364;-1.504;2022-12-20T02:43:30;1.83;;;0.50;;
24409;SDS011;12543;53.364;-1.504;2022-12-20T02:46:20;1.55;;;0.50;;
24409;SDS011;12543;53.364;-1.504;2022-12-20T02:48:49;4.93;;;0.50;;
24409;SDS011;12543;53.364;-1.504;2022-12-20T02:51:19;1.48;;;0.50;;
24409;SDS011;12543;53.364;-1.504;2022-12-20T02:53:48;1.45;;;0.40;;
24409;SDS011;12543;53.364;-1.504;2022-12-20T02:56:27;5.32;;;0.60;;
24409;SDS011;12543;53.364;-1.504;2022-12-20T02:59:07;1.58;;;0.60;;
24409;SDS011;12543;53.364;-1.504;2022-12-20T03:01:38;2.90;;;0.40;;
24409;SDS011;12543;53.364;-1.504;2022-12-20T03:04:10;3.33;;;0.40;;
24409;SDS011;12543;53.364;-1.504;2022-12-20T03:06:39;5.35;;;0.55;;
24409;SDS011;12543;53.364;-1.504;2022-12-20T03:09:42;2.88;;;0.77;;
24409;SDS011;12543;53.364;-1.504;2022-12-20T03:12:13;3.83;;;0.43;;
24409;SDS011;12543;53.364;-1.504;2022-12-20T03:14:41;1.67;;;0.40;;
24409;SDS011;12543;53.364;-1.504;2022-12-20T03:17:11;3.38;;;0.52;;
24409;SDS011;12543;53.364;-1.504;2022-12-20T03:19:38;1.53;;;0.50;;
24409;SDS011;12543;53.364;-1.504;2022-12-20T03:22:06;2.65;;;0.50;;
24409;SDS011;12543;53.364;-1.504;2022-12-20T03:24:33;1.50;;;0.43;;
24409;SDS011;12543;53.364;-1.504;2022-12-20T03:27:04;4.85;;;0.57;;
24409;SDS011;12543;53.364;-1.504;2022-12-20T03:29:31;3.90;;;0.50;;
24409;SDS011;12543;53.364;-1.504;2022-12-20T03:31:59;2.70;;;0.50;;
24409;SDS011;12543;53.364;-1.504;2022-12-20T03:34:26;1.25;;;0.40;;
24409;SDS011;12543;53.364;-1.504;2022-12-20T03:36:53;1.33;;;0.40;;
24409;SDS011;12543;53.364;-1.504;2022-12-20T03:39:20;2.70;;;0.50;;
24409;SDS011;12543;53.364;-1.504;2022-12-20T03:41:49;2.30;;;0.60;;
24409;SDS011;12543;53.364;-1.504;2022-12-20T03:44:17;1.60;;;0.53;;
24409;SDS011;12543;53.364;-1.504;2022-12-20T03:46:44;1.98;;;0.77;;
24409;SDS011;12543;53.364;-1.504;2022-12-20T03:49:11;2.67;;;0.55;;
24409;SDS011;12543;53.364;-1.504;2022-12-20T03:51:44;2.67;;;0.55;;
24409;SDS011;12543;53.364;-1.504;2022-12-20T03:54:12;2.42;;;0.70;;
24409;SDS011;12543;53.364;-1.504;2022-12-20T03:56:58;1.92;;;0.55;;
24409;SDS011;12543;53.364;-1.504;2022-12-20T03:59:25;3.65;;;0.98;;
24409;SDS011;12543;53.364;-1.504;2022-12-20T04:01:52;5.22;;;1.30;;
24409;SDS011;12543;53.364;-1.504;2022-12-20T04:06:48;2.13;;;1.20;;
24409;SDS011;12543;53.364;-1.504;2022-12-20T04:09:15;5.00;;;1.10;;
24409;SDS011;12543;53.364;-1.504;2022-12-20T04:11:47;4.28;;;1.08;;
24409;SDS011;12543;53.364;-1.504;2022-12-20T04:14:14;4.45;;;0.82;;
24409;SDS011;12543;53.364;-1.504;2022-12-20T04:16:42;4.47;;;0.93;;
24409;SDS011;12543;53.364;-1.504;2022-12-20T04:19:10;3.42;;;0.70;;
24409;SDS011;12543;53.364;-1.504;2022-12-20T04:21:44;2.70;;;0.60;;
24409;SDS011;12543;53.364;-1.504;2022-12-20T04:24:12;6.28;;;0.98;;
24409;SDS011;12543;53.364;-1.504;2022-12-20T04:26:43;4.30;;;0.73;;
24409;SDS011;12543;53.364;-1.504;2022-12-20T04:29:12;6.43;;;0.80;;
24409;SDS011;12543;53.364;-1.504;2022-12-20T04:31:40;7.03;;;1.30;;
24409;SDS011;12543;53.364;-1.504;2022-12-20T04:34:08;1.90;;;0.50;;
24409;SDS011;12543;53.364;-1.504;2022-12-20T04:36:36;3.75;;;1.00;;
24409;SDS011;12543;53.364;-1.504;2022-12-20T04:39:07;2.95;;;0.70;;
24409;SDS011;12543;53.364;-1.504;2022-12-20T04:41:48;7.47;;;1.10;;
24409;SDS011;12543;53.364;-1.504;2022-12-20T04:44:15;3.45;;;0.55;;
24409;SDS011;12543;53.364;-1.504;2022-12-20T04:46:43;4.35;;;0.80;;
24409;SDS011;12543;53.364;-1.504;2022-12-20T04:49:13;3.10;;;0.75;;
24409;SDS011;12543;53.364;-1.504;2022-12-20T04:51:42;2.78;;;0.90;;
24409;SDS011;12543;53.364;-1.504;2022-12-20T04:54:11;3.78;;;0.70;;
24409;SDS011;12543;53.364;-1.504;2022-12-20T04:56:53;4.30;;;0.90;;
24409;SDS011;12543;53.364;-1.504;2022-12-20T04:59:22;5.05;;;0.90;;
24409;SDS011;12543;53.364;-1.504;2022-12-20T05:01:52;6.32;;;0.73;;
24409;SDS011;12543;53.364;-1.504;2022-12-20T05:04:42;5.28;;;0.90;;
24409;SDS011;12543;53.364;-1.504;2022-12-20T05:07:09;2.60;;;0.75;;
24409;SDS011;12543;53.364;-1.504;2022-12-20T05:09:39;2.55;;;0.70;;
24409;SDS011;12543;53.364;-1.504;2022-12-20T05:12:06;3.00;;;0.70;;
24409;SDS011;12543;53.364;-1.504;2022-12-20T05:14:33;2.38;;;0.60;;
24409;SDS011;12543;53.364;-1.504;2022-12-20T05:17:01;1.42;;;0.50;;
24409;SDS011;12543;53.364;-1.504;2022-12-20T05:19:28;5.50;;;0.80;;
24409;SDS011;12543;53.364;-1.504;2022-12-20T05:21:56;1.92;;;0.50;;
24409;SDS011;12543;53.364;-1.504;2022-12-20T05:24:54;2.03;;;0.70;;
24409;SDS011;12543;53.364;-1.504;2022-12-20T05:27:40;1.55;;;0.90;;
24409;SDS011;12543;53.364;-1.504;2022-12-20T05:30:08;2.00;;;0.70;;
24409;SDS011;12543;53.364;-1.504;2022-12-20T05:32:36;2.50;;;0.70;;
24409;SDS011;12543;53.364;-1.504;2022-12-20T05:35:03;4.97;;;0.70;;
24409;SDS011;12543;53.364;-1.504;2022-12-20T05:37:32;5.07;;;0.60;;
24409;SDS011;12543;53.364;-1.504;2022-12-20T05:40:06;2.90;;;0.95;;
24409;SDS011;12543;53.364;-1.504;2022-12-20T05:42:34;3.85;;;0.63;;
24409;SDS011;12543;53.364;-1.504;2022-12-20T05:45:01;3.28;;;0.98;;
24409;SDS011;12543;53.364;-1.504;2022-12-20T05:47:33;2.78;;;0.70;;
24409;SDS011;12543;53.364;-1.504;2022-12-20T05:50:06;2.10;;;0.65;;
24409;SDS011;12543;53.364;-1.504;2022-12-20T05:53:02;3.38;;;1.00;;
24409;SDS011;12543;53.364;-1.504;2022-12-20T05:55:42;2.13;;;0.82;;
24409;SDS011;12543;53.364;-1.504;2022-12-20T05:58:11;5.10;;;0.80;;
24409;SDS011;12543;53.364;-1.504;2022-12-20T06:00:48;2.95;;;0.90;;
24409;SDS011;12543;53.364;-1.504;2022-12-20T06:03:17;4.15;;;0.70;;
24409;SDS011;12543;53.364;-1.504;2022-12-20T06:05:44;2.00;;;0.60;;
24409;SDS011;12543;53.364;-1.504;2022-12-20T06:08:17;2.20;;;0.70;;
24409;SDS011;12543;53.364;-1.504;2022-12-20T06:10:48;1.92;;;0.80;;
24409;SDS011;12543;53.364;-1.504;2022-12-20T06:15:46;3.95;;;0.60;;
24409;SDS011;12543;53.364;-1.504;2022-12-20T06:18:13;1.85;;;0.63;;
24409;SDS011;12543;53.364;-1.504;2022-12-20T06:20:41;2.70;;;0.75;;
24409;SDS011;12543;53.364;-1.504;2022-12-20T06:23:12;2.40;;;0.70;;
24409;SDS011;12543;53.364;-1.504;2022-12-20T06:25:46;1.48;;;0.60;;
24409;SDS011;12543;53.364;-1.504;2022-12-20T06:28:14;2.03;;;0.60;;
24409;SDS011;12543;53.364;-1.504;2022-12-20T06:30:53;0.95;;;0.65;;
24409;SDS011;12543;53.364;-1.504;2022-12-20T06:33:40;3.25;;;0.70;;
24409;SDS011;12543;53.364;-1.504;2022-12-20T06:36:07;0.85;;;0.50;;
24409;SDS011;12543;53.364;-1.504;2022-12-20T06:38:34;3.75;;;0.90;;
24409;SDS011;12543;53.364;-1.504;2022-12-20T06:41:01;3.20;;;0.70;;
24409;SDS011;12543;53.364;-1.504;2022-12-20T06:43:29;2.35;;;0.80;;
24409;SDS011;12543;53.364;-1.504;2022-12-20T06:45:56;2.25;;;0.93;;
24409;SDS011;12543;53.364;-1.504;2022-12-20T06:48:23;2.05;;;0.90;;
24409;SDS011;12543;53.364;-1.504;2022-12-20T06:50:51;1.27;;;0.68;;
24409;SDS011;12543;53.364;-1.504;2022-12-20T06:53:23;3.70;;;0.88;;
24409;SDS011;12543;53.364;-1.504;2022-12-20T06:55:50;1.88;;;0.95;;
24409;SDS011;12543;53.364;-1.504;2022-12-20T06:58:18;2.53;;;0.97;;
24409;SDS011;12543;53.364;-1.504;2022-12-20T07:00:47;4.35;;;1.67;;
24409;SDS011;12543;53.364;-1.504;2022-12-20T07:03:14;1.98;;;0.90;;
24409;SDS011;12543;53.364;-1.504;2022-12-20T07:05:41;3.28;;;0.90;;
24409;SDS011;12543;53.364;-1.504;2022-12-20T07:08:08;6.13;;;1.23;;
24409;SDS011;12543;53.364;-1.504;2022-12-20T07:10:36;3.60;;;0.90;;
24409;SDS011;12543;53.364;-1.504;2022-12-20T07:13:03;2.10;;;0.85;;
24409;SDS011;12543;53.364;-1.504;2022-12-20T07:15:30;7.50;;;1.38;;
24409;SDS011;12543;53.364;-1.504;2022-12-20T07:17:57;4.40;;;0.90;;
24409;SDS011;12543;53.364;-1.504;2022-12-20T07:20:24;5.13;;;1.20;;
24409;SDS011;12543;53.364;-1.504;2022-12-20T07:22:52;1.85;;;0.80;;
24409;SDS011;12543;53.364;-1.504;2022-12-20T07:25:19;4.05;;;0.80;;
24409;SDS011;12543;53.364;-1.504;2022-12-20T07:27:47;4.50;;;1.35;;
24409;SDS011;12543;53.364;-1.504;2022-12-20T07:30:18;3.13;;;0.90;;
24409;SDS011;12543;53.364;-1.504;2022-12-20T07:35:13;4.10;;;1.20;;
24409;SDS011;12543;53.364;-1.504;2022-12-20T07:37:41;4.10;;;1.10;;
24409;SDS011;12543;53.364;-1.504;2022-12-20T07:40:09;3.92;;;1.40;;
24409;SDS011;12543;53.364;-1.504;2022-12-20T07:42:37;2.83;;;1.27;;
24409;SDS011;12543;53.364;-1.504;2022-12-20T07:45:13;3.40;;;1.30;;
24409;SDS011;12543;53.364;-1.504;2022-12-20T07:47:41;4.30;;;1.20;;
24409;SDS011;12543;53.364;-1.504;2022-12-20T07:50:09;5.68;;;1.25;;
24409;SDS011;12543;53.364;-1.504;2022-12-20T07:52:37;2.97;;;1.40;;
24409;SDS011;12543;53.364;-1.504;2022-12-20T07:55:07;5.03;;;2.20;;
24409;SDS011;12543;53.364;-1.504;2022-12-20T07:57:39;5.20;;;3.10;;
24409;SDS011;12543;53.364;-1.504;2022-12-20T08:00:10;4.88;;;2.92;;
24409;SDS011;12543;53.364;-1.504;2022-12-20T08:02:42;4.37;;;2.57;;
24409;SDS011;12543;53.364;-1.504;2022-12-20T08:05:24;3.70;;;2.72;;
24409;SDS011;12543;53.364;-1.504;2022-12-20T08:07:52;8.30;;;2.75;;
24409;SDS011;12543;53.364;-1.504;2022-12-20T08:10:25;3.97;;;2.28;;
24409;SDS011;12543;53.364;-1.504;2022-12-20T08:12:52;4.97;;;2.15;;
24409;SDS011;12543;53.364;-1.504;2022-12-20T08:15:20;6.43;;;2.00;;
24409;SDS011;12543;53.364;-1.504;2022-12-20T08:17:48;6.47;;;1.80;;
24409;SDS011;12543;53.364;-1.504;2022-12-20T08:20:16;3.08;;;1.70;;
24409;SDS011;12543;53.364;-1.504;2022-12-20T08:22:46;4.95;;;1.83;;
24409;SDS011;12543;53.364;-1.504;2022-12-20T08:25:13;3.30;;;1.92;;
24409;SDS011;12543;53.364;-1.504;2022-12-20T08:27:40;4.95;;;2.10;;
24409;SDS011;12543;53.364;-1.504;2022-12-20T08:30:07;3.22;;;2.20;;
24409;SDS011;12543;53.364;-1.504;2022-12-20T08:35:03;5.43;;;1.77;;
24409;SDS011;12543;53.364;-1.504;2022-12-20T08:37:31;5.80;;;2.50;;
24409;SDS011;12543;53.364;-1.504;2022-12-20T08:39:58;3.78;;;1.80;;
24409;SDS011;12543;53.364;-1.504;2022-12-20T08:42:26;3.10;;;1.73;;
24409;SDS011;12543;53.364;-1.504;2022-12-20T08:44:54;8.00;;;1.88;;
24409;SDS011;12543;53.364;-1.504;2022-12-20T08:47:21;8.80;;;2.38;;
24409;SDS011;12543;53.364;-1.504;2022-12-20T08:49:48;9.05;;;2.10;;
24409;SDS011;12543;53.364;-1.504;2022-12-20T08:52:15;2.85;;;1.35;;
24409;SDS011;12543;53.364;-1.504;2022-12-20T08:54:42;5.38;;;1.83;;
24409;SDS011;12543;53.364;-1.504;2022-12-20T08:57:09;7.75;;;1.50;;
24409;SDS011;12543;53.364;-1.504;2022-12-20T08:59:36;5.80;;;1.73;;
24409;SDS011;12543;53.364;-1.504;2022-12-20T09:02:03;5.07;;;1.60;;
24409;SDS011;12543;53.364;-1.504;2022-12-20T09:04:31;4.70;;;1.10;;
24409;SDS011;12543;53.364;-1.504;2022-12-20T09:06:58;6.85;;;1.50;;
24409;SDS011;12543;53.364;-1.504;2022-12-20T09:09:25;7.53;;;1.77;;
24409;SDS011;12543;53.364;-1.504;2022-12-20T09:11:52;11.40;;;2.00;;
24409;SDS011;12543;53.364;-1.504;2022-12-20T09:14:20;9.25;;;1.80;;
24409;SDS011;12543;53.364;-1.504;2022-12-20T09:16:47;10.43;;;1.98;;
24409;SDS011;12543;53.364;-1.504;2022-12-20T09:19:14;13.52;;;2.58;;
24409;SDS011;12543;53.364;-1.504;2022-12-20T09:21:41;6.25;;;2.20;;
24409;SDS011;12543;53.364;-1.504;2022-12-20T09:24:08;9.57;;;2.10;;
24409;SDS011;12543;53.364;-1.504;2022-12-20T09:26:36;10.75;;;2.40;;
24409;SDS011;12543;53.364;-1.504;2022-12-20T09:29:03;7.80;;;2.28;;
24409;SDS011;12543;53.364;-1.504;2022-12-20T09:31:30;11.27;;;2.42;;
24409;SDS011;12543;53.364;-1.504;2022-12-20T09:33:58;13.57;;;2.67;;
24409;SDS011;12543;53.364;-1.504;2022-12-20T09:36:27;7.72;;;2.63;;
24409;SDS011;12543;53.364;-1.504;2022-12-20T09:38:55;10.48;;;2.78;;
24409;SDS011;12543;53.364;-1.504;2022-12-20T09:44:01;12.20;;;2.78;;
24409;SDS011;12543;53.364;-1.504;2022-12-20T09:46:32;12.18;;;2.67;;
24409;SDS011;12543;53.364;-1.504;2022-12-20T09:49:00;15.50;;;2.75;;
24409;SDS011;12543;53.364;-1.504;2022-12-20T09:52:33;10.47;;;1.97;;
24409;SDS011;12543;53.364;-1.504;2022-12-20T10:00:20;11.18;;;2.47;;
24409;SDS011;12543;53.364;-1.504;2022-12-20T10:02:48;12.38;;;2.45;;
24409;SDS011;12543;53.364;-1.504;2022-12-20T10:06:08;10.93;;;2.40;;
24409;SDS011;12543;53.364;-1.504;2022-12-20T10:08:58;15.68;;;2.47;;
24409;SDS011;12543;53.364;-1.504;2022-12-20T10:14:26;15.13;;;2.88;;
24409;SDS011;12543;53.364;-1.504;2022-12-20T10:17:07;19.13;;;3.08;;
24409;SDS011;12543;53.364;-1.504;2022-12-20T10:22:29;14.65;;;3.22;;
24409;SDS011;12543;53.364;-1.504;2022-12-20T10:25:14;19.95;;;3.15;;
24409;SDS011;12543;53.364;-1.504;2022-12-20T10:27:42;14.18;;;2.40;;
24409;SDS011;12543;53.364;-1.504;2022-12-20T10:30:17;17.33;;;2.55;;
24409;SDS011;12543;53.364;-1.504;2022-12-20T10:32:47;13.02;;;2.35;;
24409;SDS011;12543;53.364;-1.504;2022-12-20T10:43:57;13.75;;;2.95;;
24409;SDS011;12543;53.364;-1.504;2022-12-20T10:46:40;16.38;;;2.85;;
24409;SDS011;12543;53.364;-1.504;2022-12-20T10:49:29;18.30;;;3.15;;
24409;SDS011;12543;53.364;-1.504;2022-12-20T10:51:58;15.02;;;2.63;;
24409;SDS011;12543;53.364;-1.504;2022-12-20T10:54:29;12.45;;;2.17;;
24409;SDS011;12543;53.364;-1.504;2022-12-20T10:57:00;14.63;;;2.22;;
24409;SDS011;12543;53.364;-1.504;2022-12-20T10:59:41;14.13;;;2.35;;
24409;SDS011;12543;53.364;-1.504;2022-12-20T11:02:23;18.35;;;2.70;;
24409;SDS011;12543;53.364;-1.504;2022-12-20T11:07:39;16.83;;;2.58;;
24409;SDS011;12543;53.364;-1.504;2022-12-20T11:10:43;18.58;;;3.28;;
24409;SDS011;12543;53.364;-1.504;2022-12-20T11:13:22;11.35;;;2.25;;
24409;SDS011;12543;53.364;-1.504;2022-12-20T11:15:52;11.40;;;2.08;;
24409;SDS011;12543;53.364;-1.504;2022-12-20T11:27:11;19.80;;;2.88;;
24409;SDS011;12543;53.364;-1.504;2022-12-20T11:32:32;15.43;;;2.72;;
24409;SDS011;12543;53.364;-1.504;2022-12-20T11:40:31;13.30;;;2.45;;
24409;SDS011;12543;53.364;-1.504;2022-12-20T11:48:41;14.88;;;2.53;;
24409;SDS011;12543;53.364;-1.504;2022-12-20T11:52:01;14.50;;;3.08;;
24409;SDS011;12543;53.364;-1.504;2022-12-20T11:56:33;16.42;;;3.00;;
24409;SDS011;12543;53.364;-1.504;2022-12-20T12:04:54;24.33;;;3.65;;
24409;SDS011;12543;53.364;-1.504;2022-12-20T12:07:29;18.27;;;3.00;;
24409;SDS011;12543;53.364;-1.504;2022-12-20T12:10:05;15.50;;;2.90;;
24409;SDS011;12543;53.364;-1.504;2022-12-20T12:12:43;19.67;;;3.13;;
24409;SDS011;12543;53.364;-1.504;2022-12-20T12:15:41;15.63;;;2.80;;
24409;SDS011;12543;53.364;-1.504;2022-12-20T12:18:17;16.63;;;2.17;;
24409;SDS011;12543;53.364;-1.504;2022-12-20T12:23:37;10.65;;;2.17;;
24409;SDS011;12543;53.364;-1.504;2022-12-20T12:26:11;11.63;;;2.10;;
24409;SDS011;12543;53.364;-1.504;2022-12-20T12:29:01;13.88;;;2.30;;
24409;SDS011;12543;53.364;-1.504;2022-12-20T12:31:49;14.75;;;2.40;;
24409;SDS011;12543;53.364;-1.504;2022-12-20T12:45:43;13.68;;;2.45;;
24409;SDS011;12543;53.364;-1.504;2022-12-20T12:50:56;17.80;;;3.13;;
24409;SDS011;12543;53.364;-1.504;2022-12-20T13:01:50;18.08;;;3.20;;
24409;SDS011;12543;53.364;-1.504;2022-12-20T13:04:23;21.33;;;3.25;;
24409;SDS011;12543;53.364;-1.504;2022-12-20T13:06:53;15.80;;;2.50;;
24409;SDS011;12543;53.364;-1.504;2022-12-20T13:11:52;14.82;;;2.83;;
24409;SDS011;12543;53.364;-1.504;2022-12-20T13:19:51;12.73;;;3.03;;
24409;SDS011;12543;53.364;-1.504;2022-12-20T13:22:23;18.17;;;3.35;;
24409;SDS011;12543;53.364;-1.504;2022-12-20T13:24:58;18.83;;;3.03;;
24409;SDS011;12543;53.364;-1.504;2022-12-20T13:27:36;11.50;;;2.38;;
24409;SDS011;12543;53.364;-1.504;2022-12-20T13:40:58;11.98;;;2.65;;
24409;SDS011;12543;53.364;-1.504;2022-12-20T13:46:11;13.80;;;2.92;;
24409;SDS011;12543;53.364;-1.504;2022-12-20T13:51:16;23.83;;;3.15;;
24409;SDS011;12543;53.364;-1.504;2022-12-20T13:58:56;13.05;;;2.63;;
24409;SDS011;12543;53.364;-1.504;2022-12-20T14:01:29;15.02;;;3.08;;
24409;SDS011;12543;53.364;-1.504;2022-12-20T14:03:56;15.60;;;2.70;;
24409;SDS011;12543;53.364;-1.504;2022-12-20T14:06:24;16.27;;;2.40;;
24409;SDS011;12543;53.364;-1.504;2022-12-20T14:08:52;21.45;;;3.53;;
24409;SDS011;12543;53.364;-1.504;2022-12-20T14:11:21;21.20;;;3.58;;
24409;SDS011;12543;53.364;-1.504;2022-12-20T14:13:59;23.77;;;3.75;;
24409;SDS011;12543;53.364;-1.504;2022-12-20T14:16:28;16.58;;;2.78;;
24409;SDS011;12543;53.364;-1.504;2022-12-20T14:19:01;20.33;;;3.10;;
24409;SDS011;12543;53.364;-1.504;2022-12-20T14:21:29;19.83;;;3.55;;
24409;SDS011;12543;53.364;-1.504;2022-12-20T14:24:00;16.73;;;3.05;;
24409;SDS011;12543;53.364;-1.504;2022-12-20T14:28:58;17.52;;;3.22;;
24409;SDS011;12543;53.364;-1.504;2022-12-20T14:31:42;19.88;;;3.03;;
24409;SDS011;12543;53.364;-1.504;2022-12-20T14:42:12;18.55;;;2.85;;
24409;SDS011;12543;53.364;-1.504;2022-12-20T14:44:42;16.10;;;2.90;;
24409;SDS011;12543;53.364;-1.504;2022-12-20T14:47:17;12.48;;;2.78;;
24409;SDS011;12543;53.364;-1.504;2022-12-20T14:52:23;11.73;;;2.88;;
24409;SDS011;12543;53.364;-1.504;2022-12-20T15:16:26;14.75;;;3.10;;
24409;SDS011;12543;53.364;-1.504;2022-12-20T15:18:58;16.25;;;2.60;;
24409;SDS011;12543;53.364;-1.504;2022-12-20T15:21:31;12.77;;;2.10;;
24409;SDS011;12543;53.364;-1.504;2022-12-20T15:23:59;13.95;;;3.00;;
24409;SDS011;12543;53.364;-1.504;2022-12-20T15:26:28;11.27;;;2.40;;
24409;SDS011;12543;53.364;-1.504;2022-12-20T15:28:56;11.43;;;2.83;;
24409;SDS011;12543;53.364;-1.504;2022-12-20T15:31:23;16.60;;;3.30;;
24409;SDS011;12543;53.364;-1.504;2022-12-20T15:33:58;14.43;;;3.38;;
24409;SDS011;12543;53.364;-1.504;2022-12-20T15:36:28;14.70;;;3.22;;
24409;SDS011;12543;53.364;-1.504;2022-12-20T15:38:56;10.52;;;2.53;;
24409;SDS011;12543;53.364;-1.504;2022-12-20T15:41:42;13.20;;;3.15;;
24409;SDS011;12543;53.364;-1.504;2022-12-20T15:44:22;15.43;;;3.42;;
24409;SDS011;12543;53.364;-1.504;2022-12-20T15:46:51;19.52;;;3.22;;
24409;SDS011;12543;53.364;-1.504;2022-12-20T15:49:20;12.75;;;2.30;;
24409;SDS011;12543;53.364;-1.504;2022-12-20T15:51:52;12.50;;;2.00;;
24409;SDS011;12543;53.364;-1.504;2022-12-20T15:54:33;10.00;;;2.00;;
24409;SDS011;12543;53.364;-1.504;2022-12-20T15:57:03;13.45;;;2.30;;
24409;SDS011;12543;53.364;-1.504;2022-12-20T15:59:33;11.95;;;2.15;;
24409;SDS011;12543;53.364;-1.504;2022-12-20T16:02:21;9.23;;;2.00;;
24409;SDS011;12543;53.364;-1.504;2022-12-20T16:04:51;9.38;;;1.77;;
24409;SDS011;12543;53.364;-1.504;2022-12-20T16:07:19;11.70;;;2.38;;
24409;SDS011;12543;53.364;-1.504;2022-12-20T16:09:46;16.80;;;3.00;;
24409;SDS011;12543;53.364;-1.504;2022-12-20T16:12:14;14.27;;;3.20;;
24409;SDS011;12543;53.364;-1.504;2022-12-20T16:14:44;9.88;;;2.63;;
24409;SDS011;12543;53.364;-1.504;2022-12-20T16:17:14;10.80;;;2.42;;
24409;SDS011;12543;53.364;-1.504;2022-12-20T16:19:42;9.23;;;2.13;;
24409;SDS011;12543;53.364;-1.504;2022-12-20T16:22:16;13.60;;;2.50;;
24409;SDS011;12543;53.364;-1.504;2022-12-20T16:27:15;16.02;;;3.10;;
24409;SDS011;12543;53.364;-1.504;2022-12-20T16:29:42;13.93;;;2.70;;
24409;SDS011;12543;53.364;-1.504;2022-12-20T16:32:16;9.50;;;2.45;;
24409;SDS011;12543;53.364;-1.504;2022-12-20T16:34:45;8.75;;;1.88;;
24409;SDS011;12543;53.364;-1.504;2022-12-20T16:37:12;15.13;;;2.10;;
24409;SDS011;12543;53.364;-1.504;2022-12-20T16:39:40;11.00;;;2.13;;
24409;SDS011;12543;53.364;-1.504;2022-12-20T16:42:14;8.20;;;2.00;;
24409;SDS011;12543;53.364;-1.504;2022-12-20T16:44:43;14.57;;;2.97;;
24409;SDS011;12543;53.364;-1.504;2022-12-20T16:47:12;11.63;;;3.65;;
24409;SDS011;12543;53.364;-1.504;2022-12-20T16:49:40;12.15;;;3.65;;
24409;SDS011;12543;53.364;-1.504;2022-12-20T16:52:17;16.27;;;4.00;;
24409;SDS011;12543;53.364;-1.504;2022-12-20T16:54:45;12.43;;;3.90;;
24409;SDS011;12543;53.364;-1.504;2022-12-20T16:57:12;13.30;;;3.60;;
24409;SDS011;12543;53.364;-1.504;2022-12-20T16:59:40;14.20;;;3.45;;
24409;SDS011;12543;53.364;-1.504;2022-12-20T17:02:21;15.63;;;3.20;;
24409;SDS011;12543;53.364;-1.504;2022-12-20T17:04:52;15.90;;;3.90;;
24409;SDS011;12543;53.364;-1.504;2022-12-20T17:07:19;15.45;;;3.03;;
24409;SDS011;12543;53.364;-1.504;2022-12-20T17:09:47;17.17;;;3.27;;
24409;SDS011;12543;53.364;-1.504;2022-12-20T17:12:31;14.55;;;3.40;;
24409;SDS011;12543;53.364;-1.504;2022-12-20T17:14:58;18.52;;;3.90;;
24409;SDS011;12543;53.364;-1.504;2022-12-20T17:17:25;23.52;;;3.88;;
24409;SDS011;12543;53.364;-1.504;2022-12-20T17:19:52;17.92;;;3.60;;
24409;SDS011;12543;53.364;-1.504;2022-12-20T17:22:19;16.63;;;3.90;;
24409;SDS011;12543;53.364;-1.504;2022-12-20T17:24:50;16.80;;;3.80;;
24409;SDS011;12543;53.364;-1.504;2022-12-20T17:27:17;13.40;;;2.70;;
24409;SDS011;12543;53.364;-1.504;2022-12-20T17:29:44;13.85;;;3.50;;
24409;SDS011;12543;53.364;-1.504;2022-12-20T17:32:16;12.45;;;3.42;;
24409;SDS011;12543;53.364;-1.504;2022-12-20T17:34:48;15.98;;;3.85;;
24409;SDS011;12543;53.364;-1.504;2022-12-20T17:37:16;10.10;;;3.13;;
24409;SDS011;12543;53.364;-1.504;2022-12-20T17:39:43;16.42;;;3.25;;
24409;SDS011;12543;53.364;-1.504;2022-12-20T17:42:13;22.05;;;3.50;;
24409;SDS011;12543;53.364;-1.504;2022-12-20T17:44:41;17.20;;;3.10;;
24409;SDS011;12543;53.364;-1.504;2022-12-20T17:47:08;21.45;;;3.83;;
24409;SDS011;12543;53.364;-1.504;2022-12-20T17:52:04;19.58;;;3.70;;
24409;SDS011;12543;53.364;-1.504;2022-12-20T17:54:31;12.80;;;2.75;;